sensor_id;sensor_type;location;lat;lon;timestamp;P1;durP1;ratioP1;P2;durP2;ratioP2
4837;SDS011;2433;48.768;9.154;2023-01-20T00:00:36;12.40;;;8.67;;
4837;SDS011;2433;48.768;9.154;2023-01-20T00:03:02;10.73;;;8.27;;
4837;SDS011;2433;48.768;9.154;2023-01-20T00:05:27;10.60;;;7.40;;
4837;SDS011;2433;48.768;9.154;2023-01-20T00:07:53;12.20;;;7.93;;
4837;SDS011;2433;48.768;9.154;2023-01-20T00:10:18;8.77;;;7.17;;
4837;SDS011;2433;48.768;9.154;2023-01-20T00:12:44;11.93;;;7.80;;
4837;SDS011;2433;48.768;9.154;2023-01-20T00:15:09;10.43;;;8.20;;
4837;SDS011;2433;48.768;9.154;2023-01-20T00:17:35;8.77;;;7.83;;
4837;SDS011;2433;48.768;9.154;2023-01-20T00:20:01;8.20;;;6.73;;
4837;SDS011;2433;48.768;9.154;2023-01-20T00:22:27;8.40;;;7.20;;
4837;SDS011;2433;48.768;9.154;2023-01-20T00:24:53;11.53;;;7.23;;
4837;SDS011;2433;48.768;9.154;2023-01-20T00:27:18;9.57;;;6.67;;
4837;SDS011;2433;48.768;9.154;2023-01-20T00:29:44;12.00;;;8.03;;
4837;SDS011;2433;48.768;9.154;2023-01-20T00:32:11;7.65;;;6.50;;
4837;SDS011;2433;48.768;9.154;2023-01-20T00:34:36;8.00;;;7.07;;
4837;SDS011;2433;48.768;9.154;2023-01-20T00:37:03;9.37;;;7.60;;
4837;SDS011;2433;48.768;9.154;2023-01-20T00:39:28;7.72;;;6.90;;
4837;SDS011;2433;48.768;9.154;2023-01-20T00:41:54;7.93;;;7.13;;
4837;SDS011;2433;48.768;9.154;2023-01-20T00:44:19;9.97;;;7.10;;
4837;SDS011;2433;48.768;9.154;2023-01-20T00:46:45;10.27;;;7.50;;
4837;SDS011;2433;48.768;9.154;2023-01-20T00:49:10;13.40;;;7.67;;
4837;SDS011;2433;48.768;9.154;2023-01-20T00:51:36;9.93;;;7.10;;
4837;SDS011;2433;48.768;9.154;2023-01-20T00:54:02;7.77;;;5.70;;
4837;SDS011;2433;48.768;9.154;2023-01-20T00:56:27;10.00;;;6.97;;
4837;SDS011;2433;48.768;9.154;2023-01-20T00:58:53;7.17;;;5.80;;
4837;SDS011;2433;48.768;9.154;2023-01-20T01:01:22;8.18;;;7.13;;
4837;SDS011;2433;48.768;9.154;2023-01-20T01:03:47;7.43;;;5.90;;
4837;SDS011;2433;48.768;9.154;2023-01-20T01:06:17;7.23;;;6.50;;
4837;SDS011;2433;48.768;9.154;2023-01-20T01:08:43;9.23;;;6.95;;
4837;SDS011;2433;48.768;9.154;2023-01-20T01:11:09;10.85;;;7.63;;
4837;SDS011;2433;48.768;9.154;2023-01-20T01:13:36;10.75;;;6.63;;
4837;SDS011;2433;48.768;9.154;2023-01-20T01:16:03;10.40;;;7.10;;
4837;SDS011;2433;48.768;9.154;2023-01-20T01:18:29;8.75;;;6.30;;
4837;SDS011;2433;48.768;9.154;2023-01-20T01:20:55;12.33;;;7.47;;
4837;SDS011;2433;48.768;9.154;2023-01-20T01:23:20;13.17;;;8.10;;
4837;SDS011;2433;48.768;9.154;2023-01-20T01:25:46;10.07;;;7.93;;
4837;SDS011;2433;48.768;9.154;2023-01-20T01:28:11;12.23;;;7.37;;
4837;SDS011;2433;48.768;9.154;2023-01-20T01:30:37;8.70;;;6.87;;
4837;SDS011;2433;48.768;9.154;2023-01-20T01:33:03;8.83;;;7.40;;
4837;SDS011;2433;48.768;9.154;2023-01-20T01:35:28;8.57;;;7.20;;
4837;SDS011;2433;48.768;9.154;2023-01-20T01:37:54;9.43;;;7.30;;
4837;SDS011;2433;48.768;9.154;2023-01-20T01:40:19;8.30;;;7.30;;
4837;SDS011;2433;48.768;9.154;2023-01-20T01:42:45;10.10;;;9.13;;
4837;SDS011;2433;48.768;9.154;2023-01-20T01:50:13;10.85;;;7.60;;
4837;SDS011;2433;48.768;9.154;2023-01-20T01:52:46;14.65;;;8.70;;
4837;SDS011;2433;48.768;9.154;2023-01-20T01:55:13;12.30;;;7.50;;
4837;SDS011;2433;48.768;9.154;2023-01-20T01:57:40;10.95;;;6.63;;
4837;SDS011;2433;48.768;9.154;2023-01-20T02:00:06;11.30;;;7.40;;
4837;SDS011;2433;48.768;9.154;2023-01-20T02:02:38;11.40;;;7.63;;
4837;SDS011;2433;48.768;9.154;2023-01-20T02:05:05;10.65;;;7.88;;
4837;SDS011;2433;48.768;9.154;2023-01-20T02:07:31;13.60;;;7.35;;
4837;SDS011;2433;48.768;9.154;2023-01-20T02:09:58;8.07;;;6.57;;
4837;SDS011;2433;48.768;9.154;2023-01-20T02:12:24;7.78;;;6.47;;
4837;SDS011;2433;48.768;9.154;2023-01-20T02:14:51;8.60;;;6.33;;
4837;SDS011;2433;48.768;9.154;2023-01-20T02:20:25;8.30;;;6.80;;
4837;SDS011;2433;48.768;9.154;2023-01-20T02:29:02;7.20;;;5.82;;
4837;SDS011;2433;48.768;9.154;2023-01-20T02:37:10;7.63;;;5.65;;
4837;SDS011;2433;48.768;9.154;2023-01-20T02:39:56;7.95;;;5.35;;
4837;SDS011;2433;48.768;9.154;2023-01-20T02:42:26;5.65;;;4.63;;
4837;SDS011;2433;48.768;9.154;2023-01-20T02:48:08;6.38;;;4.72;;
4837;SDS011;2433;48.768;9.154;2023-01-20T02:50:43;7.65;;;5.88;;
4837;SDS011;2433;48.768;9.154;2023-01-20T02:53:13;5.97;;;4.72;;
4837;SDS011;2433;48.768;9.154;2023-01-20T02:55:41;6.78;;;4.88;;
4837;SDS011;2433;48.768;9.154;2023-01-20T03:00:52;7.47;;;5.70;;
4837;SDS011;2433;48.768;9.154;2023-01-20T03:03:21;8.90;;;5.57;;
4837;SDS011;2433;48.768;9.154;2023-01-20T03:05:51;7.55;;;5.72;;
4837;SDS011;2433;48.768;9.154;2023-01-20T03:08:18;7.63;;;5.25;;
4837;SDS011;2433;48.768;9.154;2023-01-20T03:10:45;9.48;;;5.88;;
4837;SDS011;2433;48.768;9.154;2023-01-20T03:13:14;7.47;;;5.93;;
4837;SDS011;2433;48.768;9.154;2023-01-20T03:16:01;8.80;;;5.78;;
4837;SDS011;2433;48.768;9.154;2023-01-20T03:18:29;8.20;;;5.32;;
4837;SDS011;2433;48.768;9.154;2023-01-20T03:20:56;8.02;;;6.38;;
4837;SDS011;2433;48.768;9.154;2023-01-20T03:23:23;7.78;;;5.43;;
4837;SDS011;2433;48.768;9.154;2023-01-20T03:25:49;6.68;;;5.25;;
4837;SDS011;2433;48.768;9.154;2023-01-20T03:28:15;8.03;;;5.23;;
4837;SDS011;2433;48.768;9.154;2023-01-20T03:30:41;13.80;;;6.20;;
4837;SDS011;2433;48.768;9.154;2023-01-20T03:33:06;8.70;;;5.93;;
4837;SDS011;2433;48.768;9.154;2023-01-20T03:35:32;6.25;;;5.18;;
4837;SDS011;2433;48.768;9.154;2023-01-20T03:37:59;6.90;;;5.13;;
4837;SDS011;2433;48.768;9.154;2023-01-20T03:40:25;5.97;;;5.33;;
4837;SDS011;2433;48.768;9.154;2023-01-20T03:50:46;7.93;;;5.60;;
4837;SDS011;2433;48.768;9.154;2023-01-20T03:58:34;6.60;;;5.75;;
4837;SDS011;2433;48.768;9.154;2023-01-20T04:01:03;7.93;;;5.88;;
4837;SDS011;2433;48.768;9.154;2023-01-20T04:03:30;11.30;;;6.45;;
4837;SDS011;2433;48.768;9.154;2023-01-20T04:05:58;9.05;;;5.60;;
4837;SDS011;2433;48.768;9.154;2023-01-20T04:08:25;7.97;;;6.32;;
4837;SDS011;2433;48.768;9.154;2023-01-20T04:10:52;8.55;;;5.18;;
4837;SDS011;2433;48.768;9.154;2023-01-20T04:13:19;5.18;;;4.70;;
4837;SDS011;2433;48.768;9.154;2023-01-20T04:15:45;8.30;;;6.20;;
4837;SDS011;2433;48.768;9.154;2023-01-20T04:18:16;5.72;;;4.60;;
4837;SDS011;2433;48.768;9.154;2023-01-20T04:20:43;7.55;;;6.25;;
4837;SDS011;2433;48.768;9.154;2023-01-20T04:23:13;7.15;;;5.20;;
4837;SDS011;2433;48.768;9.154;2023-01-20T04:25:46;8.35;;;5.53;;
4837;SDS011;2433;48.768;9.154;2023-01-20T04:28:11;9.67;;;5.37;;
4837;SDS011;2433;48.768;9.154;2023-01-20T04:30:37;8.17;;;5.70;;
4837;SDS011;2433;48.768;9.154;2023-01-20T04:33:02;9.90;;;6.67;;
4837;SDS011;2433;48.768;9.154;2023-01-20T04:35:28;9.03;;;5.80;;
4837;SDS011;2433;48.768;9.154;2023-01-20T04:37:54;6.60;;;5.40;;
4837;SDS011;2433;48.768;9.154;2023-01-20T04:40:19;9.63;;;6.13;;
4837;SDS011;2433;48.768;9.154;2023-01-20T04:42:45;6.27;;;5.07;;
4837;SDS011;2433;48.768;9.154;2023-01-20T04:45:13;6.67;;;5.37;;
4837;SDS011;2433;48.768;9.154;2023-01-20T04:47:40;6.68;;;5.05;;
4837;SDS011;2433;48.768;9.154;2023-01-20T04:50:06;7.80;;;5.90;;
4837;SDS011;2433;48.768;9.154;2023-01-20T04:52:33;8.80;;;5.82;;
4837;SDS011;2433;48.768;9.154;2023-01-20T04:54:58;7.27;;;5.40;;
4837;SDS011;2433;48.768;9.154;2023-01-20T04:57:24;8.00;;;5.30;;
4837;SDS011;2433;48.768;9.154;2023-01-20T04:59:50;7.10;;;5.50;;
4837;SDS011;2433;48.768;9.154;2023-01-20T05:02:15;6.13;;;4.40;;
4837;SDS011;2433;48.768;9.154;2023-01-20T05:04:41;6.27;;;4.57;;
4837;SDS011;2433;48.768;9.154;2023-01-20T05:07:06;10.07;;;5.93;;
4837;SDS011;2433;48.768;9.154;2023-01-20T05:09:32;6.13;;;5.53;;
4837;SDS011;2433;48.768;9.154;2023-01-20T05:11:57;10.80;;;5.40;;
4837;SDS011;2433;48.768;9.154;2023-01-20T05:14:23;7.80;;;5.40;;
4837;SDS011;2433;48.768;9.154;2023-01-20T05:16:49;6.67;;;5.10;;
4837;SDS011;2433;48.768;9.154;2023-01-20T05:19:14;9.33;;;5.87;;
4837;SDS011;2433;48.768;9.154;2023-01-20T05:21:40;5.50;;;4.70;;
4837;SDS011;2433;48.768;9.154;2023-01-20T05:24:07;6.40;;;4.93;;
4837;SDS011;2433;48.768;9.154;2023-01-20T05:26:32;6.67;;;4.70;;
4837;SDS011;2433;48.768;9.154;2023-01-20T05:28:58;9.33;;;6.20;;
4837;SDS011;2433;48.768;9.154;2023-01-20T05:31:24;12.03;;;6.67;;
4837;SDS011;2433;48.768;9.154;2023-01-20T05:33:49;9.30;;;6.10;;
4837;SDS011;2433;48.768;9.154;2023-01-20T05:36:15;7.00;;;5.13;;
4837;SDS011;2433;48.768;9.154;2023-01-20T05:38:41;7.43;;;6.23;;
4837;SDS011;2433;48.768;9.154;2023-01-20T05:41:07;6.90;;;4.47;;
4837;SDS011;2433;48.768;9.154;2023-01-20T05:43:33;7.97;;;5.65;;
4837;SDS011;2433;48.768;9.154;2023-01-20T05:45:59;8.17;;;6.53;;
4837;SDS011;2433;48.768;9.154;2023-01-20T05:48:24;6.80;;;5.70;;
4837;SDS011;2433;48.768;9.154;2023-01-20T05:50:50;7.93;;;5.70;;
4837;SDS011;2433;48.768;9.154;2023-01-20T05:53:16;8.90;;;5.43;;
4837;SDS011;2433;48.768;9.154;2023-01-20T05:55:58;6.97;;;5.13;;
4837;SDS011;2433;48.768;9.154;2023-01-20T05:58:27;7.30;;;5.35;;
4837;SDS011;2433;48.768;9.154;2023-01-20T06:00:53;8.85;;;5.90;;
4837;SDS011;2433;48.768;9.154;2023-01-20T06:03:19;7.27;;;5.63;;
4837;SDS011;2433;48.768;9.154;2023-01-20T06:05:44;9.90;;;6.03;;
4837;SDS011;2433;48.768;9.154;2023-01-20T06:08:10;7.23;;;5.37;;
4837;SDS011;2433;48.768;9.154;2023-01-20T06:10:35;6.20;;;5.17;;
4837;SDS011;2433;48.768;9.154;2023-01-20T06:13:01;9.00;;;5.80;;
4837;SDS011;2433;48.768;9.154;2023-01-20T06:15:26;10.00;;;6.17;;
4837;SDS011;2433;48.768;9.154;2023-01-20T06:17:53;6.65;;;5.60;;
4837;SDS011;2433;48.768;9.154;2023-01-20T06:20:19;10.87;;;5.57;;
4837;SDS011;2433;48.768;9.154;2023-01-20T06:22:45;7.53;;;6.33;;
4837;SDS011;2433;48.768;9.154;2023-01-20T06:25:11;6.70;;;5.80;;
4837;SDS011;2433;48.768;9.154;2023-01-20T06:27:36;8.10;;;5.83;;
4837;SDS011;2433;48.768;9.154;2023-01-20T06:30:03;10.30;;;5.93;;
4837;SDS011;2433;48.768;9.154;2023-01-20T06:32:30;8.07;;;5.85;;
4837;SDS011;2433;48.768;9.154;2023-01-20T06:34:55;8.67;;;5.50;;
4837;SDS011;2433;48.768;9.154;2023-01-20T06:37:21;8.47;;;5.67;;
4837;SDS011;2433;48.768;9.154;2023-01-20T06:39:46;8.67;;;6.70;;
4837;SDS011;2433;48.768;9.154;2023-01-20T06:42:12;10.27;;;6.20;;
4837;SDS011;2433;48.768;9.154;2023-01-20T06:44:37;13.10;;;7.10;;
4837;SDS011;2433;48.768;9.154;2023-01-20T06:47:03;9.70;;;6.03;;
4837;SDS011;2433;48.768;9.154;2023-01-20T06:49:29;7.93;;;7.13;;
4837;SDS011;2433;48.768;9.154;2023-01-20T06:51:54;7.90;;;6.40;;
4837;SDS011;2433;48.768;9.154;2023-01-20T06:54:20;9.00;;;6.43;;
4837;SDS011;2433;48.768;9.154;2023-01-20T06:56:45;10.20;;;6.77;;
4837;SDS011;2433;48.768;9.154;2023-01-20T06:59:11;9.23;;;6.27;;
4837;SDS011;2433;48.768;9.154;2023-01-20T07:01:38;12.27;;;6.15;;
4837;SDS011;2433;48.768;9.154;2023-01-20T07:04:04;7.65;;;6.35;;
4837;SDS011;2433;48.768;9.154;2023-01-20T07:06:31;11.10;;;6.15;;
4837;SDS011;2433;48.768;9.154;2023-01-20T07:09:03;8.25;;;6.18;;
4837;SDS011;2433;48.768;9.154;2023-01-20T07:11:30;10.45;;;6.10;;
4837;SDS011;2433;48.768;9.154;2023-01-20T07:13:55;9.27;;;6.50;;
4837;SDS011;2433;48.768;9.154;2023-01-20T07:16:21;7.70;;;5.95;;
4837;SDS011;2433;48.768;9.154;2023-01-20T07:18:48;7.40;;;5.87;;
4837;SDS011;2433;48.768;9.154;2023-01-20T07:21:14;8.55;;;6.30;;
4837;SDS011;2433;48.768;9.154;2023-01-20T07:23:40;7.53;;;6.70;;
4837;SDS011;2433;48.768;9.154;2023-01-20T07:26:15;8.53;;;5.83;;
4837;SDS011;2433;48.768;9.154;2023-01-20T07:28:42;13.50;;;6.53;;
4837;SDS011;2433;48.768;9.154;2023-01-20T07:33:34;8.35;;;6.28;;
4837;SDS011;2433;48.768;9.154;2023-01-20T07:36:00;7.85;;;5.75;;
4837;SDS011;2433;48.768;9.154;2023-01-20T07:38:26;6.27;;;5.40;;
4837;SDS011;2433;48.768;9.154;2023-01-20T07:40:56;9.75;;;5.82;;
4837;SDS011;2433;48.768;9.154;2023-01-20T07:43:22;7.57;;;6.65;;
4837;SDS011;2433;48.768;9.154;2023-01-20T07:45:48;9.00;;;6.10;;
4837;SDS011;2433;48.768;9.154;2023-01-20T07:48:13;7.77;;;6.30;;
4837;SDS011;2433;48.768;9.154;2023-01-20T07:50:39;6.80;;;5.03;;
4837;SDS011;2433;48.768;9.154;2023-01-20T07:53:05;6.97;;;6.20;;
4837;SDS011;2433;48.768;9.154;2023-01-20T07:55:30;7.73;;;5.40;;
4837;SDS011;2433;48.768;9.154;2023-01-20T07:57:57;9.15;;;6.30;;
4837;SDS011;2433;48.768;9.154;2023-01-20T08:00:23;7.53;;;5.70;;
4837;SDS011;2433;48.768;9.154;2023-01-20T08:02:49;7.40;;;5.88;;
4837;SDS011;2433;48.768;9.154;2023-01-20T08:05:15;9.80;;;6.17;;
4837;SDS011;2433;48.768;9.154;2023-01-20T08:07:40;7.30;;;6.10;;
4837;SDS011;2433;48.768;9.154;2023-01-20T08:10:06;10.87;;;7.13;;
4837;SDS011;2433;48.768;9.154;2023-01-20T08:12:32;8.10;;;6.45;;
4837;SDS011;2433;48.768;9.154;2023-01-20T08:14:57;12.73;;;6.17;;
4837;SDS011;2433;48.768;9.154;2023-01-20T08:17:23;8.73;;;6.20;;
4837;SDS011;2433;48.768;9.154;2023-01-20T08:19:49;8.07;;;6.47;;
4837;SDS011;2433;48.768;9.154;2023-01-20T08:22:14;8.27;;;5.90;;
4837;SDS011;2433;48.768;9.154;2023-01-20T08:24:40;7.43;;;5.93;;
4837;SDS011;2433;48.768;9.154;2023-01-20T08:27:06;12.93;;;7.30;;
4837;SDS011;2433;48.768;9.154;2023-01-20T08:29:31;7.23;;;5.43;;
4837;SDS011;2433;48.768;9.154;2023-01-20T08:32:00;11.88;;;6.53;;
4837;SDS011;2433;48.768;9.154;2023-01-20T08:34:27;8.35;;;5.85;;
4837;SDS011;2433;48.768;9.154;2023-01-20T08:36:53;5.95;;;5.30;;
4837;SDS011;2433;48.768;9.154;2023-01-20T08:39:21;6.55;;;5.45;;
4837;SDS011;2433;48.768;9.154;2023-01-20T08:41:47;6.32;;;5.43;;
4837;SDS011;2433;48.768;9.154;2023-01-20T08:44:13;6.90;;;6.00;;
4837;SDS011;2433;48.768;9.154;2023-01-20T08:46:39;10.00;;;6.22;;
4837;SDS011;2433;48.768;9.154;2023-01-20T08:49:09;8.83;;;5.43;;
4837;SDS011;2433;48.768;9.154;2023-01-20T08:51:36;5.90;;;5.20;;
4837;SDS011;2433;48.768;9.154;2023-01-20T08:54:02;11.07;;;5.60;;
4837;SDS011;2433;48.768;9.154;2023-01-20T08:56:28;6.40;;;4.97;;
4837;SDS011;2433;48.768;9.154;2023-01-20T08:58:57;6.65;;;5.20;;
4837;SDS011;2433;48.768;9.154;2023-01-20T09:01:24;8.63;;;6.07;;
4837;SDS011;2433;48.768;9.154;2023-01-20T09:03:52;8.93;;;5.97;;
4837;SDS011;2433;48.768;9.154;2023-01-20T09:06:20;8.57;;;5.90;;
4837;SDS011;2433;48.768;9.154;2023-01-20T09:08:46;7.95;;;5.35;;
4837;SDS011;2433;48.768;9.154;2023-01-20T09:11:17;8.05;;;5.20;;
4837;SDS011;2433;48.768;9.154;2023-01-20T09:13:44;7.38;;;6.68;;
4837;SDS011;2433;48.768;9.154;2023-01-20T09:16:13;9.13;;;5.93;;
4837;SDS011;2433;48.768;9.154;2023-01-20T09:18:40;8.07;;;5.60;;
4837;SDS011;2433;48.768;9.154;2023-01-20T09:21:05;8.70;;;5.27;;
4837;SDS011;2433;48.768;9.154;2023-01-20T09:23:32;8.70;;;5.70;;
4837;SDS011;2433;48.768;9.154;2023-01-20T09:25:58;6.63;;;5.90;;
4837;SDS011;2433;48.768;9.154;2023-01-20T09:28:24;10.40;;;6.35;;
4837;SDS011;2433;48.768;9.154;2023-01-20T09:30:56;7.47;;;5.70;;
4837;SDS011;2433;48.768;9.154;2023-01-20T09:33:25;8.13;;;6.25;;
4837;SDS011;2433;48.768;9.154;2023-01-20T09:35:54;7.47;;;5.30;;
4837;SDS011;2433;48.768;9.154;2023-01-20T09:38:19;6.63;;;5.47;;
4837;SDS011;2433;48.768;9.154;2023-01-20T09:47:00;8.40;;;5.68;;
4837;SDS011;2433;48.768;9.154;2023-01-20T09:53:08;10.88;;;6.60;;
4837;SDS011;2433;48.768;9.154;2023-01-20T09:55:41;8.30;;;6.18;;
4837;SDS011;2433;48.768;9.154;2023-01-20T09:58:14;5.60;;;4.75;;
4837;SDS011;2433;48.768;9.154;2023-01-20T10:00:45;9.27;;;5.05;;
4837;SDS011;2433;48.768;9.154;2023-01-20T10:03:15;7.25;;;5.78;;
4837;SDS011;2433;48.768;9.154;2023-01-20T10:05:42;6.47;;;5.78;;
4837;SDS011;2433;48.768;9.154;2023-01-20T10:11:14;9.38;;;6.10;;
4837;SDS011;2433;48.768;9.154;2023-01-20T10:13:51;6.38;;;4.95;;
4837;SDS011;2433;48.768;9.154;2023-01-20T10:21:58;4.35;;;3.92;;
4837;SDS011;2433;48.768;9.154;2023-01-20T10:24:34;5.82;;;4.95;;
4837;SDS011;2433;48.768;9.154;2023-01-20T10:27:04;5.07;;;4.57;;
4837;SDS011;2433;48.768;9.154;2023-01-20T10:29:36;7.63;;;4.37;;
4837;SDS011;2433;48.768;9.154;2023-01-20T10:32:37;5.78;;;4.90;;
4837;SDS011;2433;48.768;9.154;2023-01-20T10:35:14;5.35;;;4.50;;
4837;SDS011;2433;48.768;9.154;2023-01-20T10:37:42;9.65;;;5.85;;
4837;SDS011;2433;48.768;9.154;2023-01-20T10:42:56;7.93;;;5.97;;
4837;SDS011;2433;48.768;9.154;2023-01-20T10:54:25;7.97;;;4.60;;
4837;SDS011;2433;48.768;9.154;2023-01-20T10:56:54;10.35;;;6.15;;
4837;SDS011;2433;48.768;9.154;2023-01-20T10:59:26;8.32;;;5.45;;
4837;SDS011;2433;48.768;9.154;2023-01-20T11:01:53;7.55;;;4.70;;
4837;SDS011;2433;48.768;9.154;2023-01-20T11:04:21;5.25;;;4.05;;
4837;SDS011;2433;48.768;9.154;2023-01-20T11:06:47;6.97;;;4.57;;
4837;SDS011;2433;48.768;9.154;2023-01-20T11:09:18;4.57;;;4.18;;
4837;SDS011;2433;48.768;9.154;2023-01-20T11:11:45;6.07;;;4.80;;
4837;SDS011;2433;48.768;9.154;2023-01-20T11:14:11;6.38;;;5.05;;
4837;SDS011;2433;48.768;9.154;2023-01-20T11:16:37;7.50;;;5.70;;
4837;SDS011;2433;48.768;9.154;2023-01-20T11:19:04;8.20;;;5.05;;
4837;SDS011;2433;48.768;9.154;2023-01-20T11:21:32;11.38;;;5.00;;
4837;SDS011;2433;48.768;9.154;2023-01-20T11:24:00;4.85;;;4.20;;
4837;SDS011;2433;48.768;9.154;2023-01-20T11:26:28;5.15;;;4.40;;
4837;SDS011;2433;48.768;9.154;2023-01-20T11:31:37;5.55;;;4.75;;
4837;SDS011;2433;48.768;9.154;2023-01-20T11:34:30;5.53;;;3.85;;
4837;SDS011;2433;48.768;9.154;2023-01-20T11:37:16;7.40;;;3.60;;
4837;SDS011;2433;48.768;9.154;2023-01-20T11:42:16;5.90;;;4.03;;
4837;SDS011;2433;48.768;9.154;2023-01-20T11:44:48;7.45;;;3.75;;
4837;SDS011;2433;48.768;9.154;2023-01-20T11:55:20;7.40;;;3.30;;
4837;SDS011;2433;48.768;9.154;2023-01-20T11:58:00;4.32;;;3.15;;
4837;SDS011;2433;48.768;9.154;2023-01-20T12:00:45;3.65;;;3.00;;
4837;SDS011;2433;48.768;9.154;2023-01-20T12:08:17;3.75;;;3.42;;
4837;SDS011;2433;48.768;9.154;2023-01-20T12:10:47;5.93;;;3.75;;
4837;SDS011;2433;48.768;9.154;2023-01-20T12:13:21;4.38;;;3.30;;
4837;SDS011;2433;48.768;9.154;2023-01-20T12:15:57;6.28;;;3.40;;
4837;SDS011;2433;48.768;9.154;2023-01-20T12:21:00;9.27;;;5.35;;
4837;SDS011;2433;48.768;9.154;2023-01-20T12:26:09;4.72;;;2.90;;
4837;SDS011;2433;48.768;9.154;2023-01-20T12:31:10;7.80;;;3.60;;
4837;SDS011;2433;48.768;9.154;2023-01-20T12:33:41;4.30;;;3.90;;
4837;SDS011;2433;48.768;9.154;2023-01-20T12:43:59;2.70;;;2.50;;
4837;SDS011;2433;48.768;9.154;2023-01-20T12:46:34;3.30;;;2.95;;
4837;SDS011;2433;48.768;9.154;2023-01-20T12:57:28;5.40;;;3.30;;
4837;SDS011;2433;48.768;9.154;2023-01-20T13:13:38;6.65;;;5.05;;
4837;SDS011;2433;48.768;9.154;2023-01-20T13:16:39;5.03;;;3.83;;
4837;SDS011;2433;48.768;9.154;2023-01-20T13:21:37;4.00;;;3.60;;
4837;SDS011;2433;48.768;9.154;2023-01-20T13:24:05;4.72;;;3.60;;
4837;SDS011;2433;48.768;9.154;2023-01-20T13:26:40;6.28;;;4.28;;
4837;SDS011;2433;48.768;9.154;2023-01-20T13:29:12;4.07;;;3.67;;
4837;SDS011;2433;48.768;9.154;2023-01-20T13:32:33;4.75;;;3.25;;
4837;SDS011;2433;48.768;9.154;2023-01-20T13:35:43;4.85;;;3.30;;
4837;SDS011;2433;48.768;9.154;2023-01-20T13:37:55;4.63;;;4.20;;
4837;SDS011;2433;48.768;9.154;2023-01-20T13:42:59;4.47;;;3.58;;
4837;SDS011;2433;48.768;9.154;2023-01-20T13:45:25;6.00;;;5.05;;
4837;SDS011;2433;48.768;9.154;2023-01-20T13:47:54;4.83;;;3.57;;
4837;SDS011;2433;48.768;9.154;2023-01-20T13:58:13;4.15;;;3.28;;
4837;SDS011;2433;48.768;9.154;2023-01-20T14:00:45;6.85;;;4.60;;
4837;SDS011;2433;48.768;9.154;2023-01-20T14:05:48;5.47;;;3.30;;
4837;SDS011;2433;48.768;9.154;2023-01-20T14:08:15;5.60;;;3.45;;
4837;SDS011;2433;48.768;9.154;2023-01-20T14:10:41;3.10;;;2.72;;
4837;SDS011;2433;48.768;9.154;2023-01-20T14:13:07;4.65;;;2.15;;
4837;SDS011;2433;48.768;9.154;2023-01-20T14:15:35;3.53;;;2.60;;
4837;SDS011;2433;48.768;9.154;2023-01-20T14:18:02;3.45;;;3.10;;
4837;SDS011;2433;48.768;9.154;2023-01-20T14:20:29;4.57;;;2.83;;
4837;SDS011;2433;48.768;9.154;2023-01-20T14:22:55;4.70;;;2.97;;
4837;SDS011;2433;48.768;9.154;2023-01-20T14:25:22;4.53;;;2.73;;
4837;SDS011;2433;48.768;9.154;2023-01-20T14:27:51;4.28;;;2.95;;
4837;SDS011;2433;48.768;9.154;2023-01-20T14:32:50;2.95;;;2.75;;
4837;SDS011;2433;48.768;9.154;2023-01-20T14:37:41;2.53;;;2.33;;
4837;SDS011;2433;48.768;9.154;2023-01-20T14:42:36;3.83;;;2.15;;
4837;SDS011;2433;48.768;9.154;2023-01-20T14:45:16;4.35;;;2.70;;
4837;SDS011;2433;48.768;9.154;2023-01-20T14:47:43;2.80;;;2.50;;
4837;SDS011;2433;48.768;9.154;2023-01-20T14:50:11;2.73;;;2.50;;
4837;SDS011;2433;48.768;9.154;2023-01-20T14:52:37;2.53;;;2.03;;
4837;SDS011;2433;48.768;9.154;2023-01-20T14:55:03;3.03;;;2.70;;
4837;SDS011;2433;48.768;9.154;2023-01-20T14:57:41;2.60;;;2.40;;
4837;SDS011;2433;48.768;9.154;2023-01-20T15:02:45;4.40;;;2.40;;
4837;SDS011;2433;48.768;9.154;2023-01-20T15:05:27;5.55;;;2.45;;
4837;SDS011;2433;48.768;9.154;2023-01-20T15:10:46;4.10;;;3.50;;
4837;SDS011;2433;48.768;9.154;2023-01-20T15:13:32;3.00;;;2.70;;
4837;SDS011;2433;48.768;9.154;2023-01-20T15:16:14;5.10;;;2.90;;
4837;SDS011;2433;48.768;9.154;2023-01-20T15:19:30;4.13;;;3.53;;
4837;SDS011;2433;48.768;9.154;2023-01-20T15:21:50;4.43;;;2.38;;
4837;SDS011;2433;48.768;9.154;2023-01-20T15:26:47;2.30;;;2.10;;
4837;SDS011;2433;48.768;9.154;2023-01-20T15:29:20;3.08;;;2.70;;
4837;SDS011;2433;48.768;9.154;2023-01-20T15:31:50;3.50;;;2.40;;
4837;SDS011;2433;48.768;9.154;2023-01-20T15:34:16;2.55;;;2.35;;
4837;SDS011;2433;48.768;9.154;2023-01-20T15:36:43;3.15;;;2.45;;
4837;SDS011;2433;48.768;9.154;2023-01-20T15:39:10;3.53;;;2.30;;
4837;SDS011;2433;48.768;9.154;2023-01-20T15:41:37;4.15;;;2.72;;
4837;SDS011;2433;48.768;9.154;2023-01-20T15:44:02;3.67;;;2.40;;
4837;SDS011;2433;48.768;9.154;2023-01-20T15:46:28;4.90;;;2.50;;
4837;SDS011;2433;48.768;9.154;2023-01-20T15:48:54;3.53;;;2.57;;
4837;SDS011;2433;48.768;9.154;2023-01-20T15:51:19;2.30;;;2.10;;
4837;SDS011;2433;48.768;9.154;2023-01-20T15:53:45;3.00;;;2.53;;
4837;SDS011;2433;48.768;9.154;2023-01-20T15:56:19;3.25;;;2.30;;
4837;SDS011;2433;48.768;9.154;2023-01-20T15:58:47;3.88;;;2.60;;
4837;SDS011;2433;48.768;9.154;2023-01-20T16:01:14;2.10;;;1.90;;
4837;SDS011;2433;48.768;9.154;2023-01-20T16:03:42;3.90;;;3.55;;
4837;SDS011;2433;48.768;9.154;2023-01-20T16:06:12;2.47;;;2.23;;
4837;SDS011;2433;48.768;9.154;2023-01-20T16:08:38;4.78;;;3.17;;
4837;SDS011;2433;48.768;9.154;2023-01-20T16:11:04;3.10;;;2.20;;
4837;SDS011;2433;48.768;9.154;2023-01-20T16:13:30;2.95;;;2.47;;
4837;SDS011;2433;48.768;9.154;2023-01-20T16:15:56;1.80;;;1.70;;
4837;SDS011;2433;48.768;9.154;2023-01-20T16:18:21;5.17;;;2.87;;
4837;SDS011;2433;48.768;9.154;2023-01-20T16:20:47;2.70;;;2.33;;
4837;SDS011;2433;48.768;9.154;2023-01-20T16:23:14;3.30;;;2.67;;
4837;SDS011;2433;48.768;9.154;2023-01-20T16:25:40;2.45;;;2.25;;
4837;SDS011;2433;48.768;9.154;2023-01-20T16:28:11;3.00;;;1.80;;
4837;SDS011;2433;48.768;9.154;2023-01-20T16:30:38;3.85;;;2.80;;
4837;SDS011;2433;48.768;9.154;2023-01-20T16:33:04;6.53;;;3.13;;
4837;SDS011;2433;48.768;9.154;2023-01-20T16:35:39;4.97;;;3.70;;
4837;SDS011;2433;48.768;9.154;2023-01-20T16:38:04;5.63;;;3.40;;
4837;SDS011;2433;48.768;9.154;2023-01-20T16:40:30;5.50;;;3.40;;
4837;SDS011;2433;48.768;9.154;2023-01-20T16:42:55;4.33;;;3.93;;
4837;SDS011;2433;48.768;9.154;2023-01-20T16:45:26;6.83;;;4.33;;
4837;SDS011;2433;48.768;9.154;2023-01-20T16:47:52;10.15;;;4.13;;
4837;SDS011;2433;48.768;9.154;2023-01-20T16:50:18;8.33;;;4.70;;
4837;SDS011;2433;48.768;9.154;2023-01-20T16:52:44;9.70;;;6.07;;
4837;SDS011;2433;48.768;9.154;2023-01-20T16:55:10;4.70;;;4.20;;
4837;SDS011;2433;48.768;9.154;2023-01-20T16:57:35;8.03;;;5.30;;
4837;SDS011;2433;48.768;9.154;2023-01-20T17:00:02;6.63;;;5.93;;
4837;SDS011;2433;48.768;9.154;2023-01-20T17:02:29;7.25;;;5.75;;
4837;SDS011;2433;48.768;9.154;2023-01-20T17:04:54;10.83;;;5.13;;
4837;SDS011;2433;48.768;9.154;2023-01-20T17:07:20;8.07;;;6.83;;
4837;SDS011;2433;48.768;9.154;2023-01-20T17:09:46;9.80;;;4.40;;
4837;SDS011;2433;48.768;9.154;2023-01-20T17:12:11;8.93;;;5.43;;
4837;SDS011;2433;48.768;9.154;2023-01-20T17:14:36;6.50;;;5.73;;
4837;SDS011;2433;48.768;9.154;2023-01-20T17:17:02;12.63;;;7.87;;
4837;SDS011;2433;48.768;9.154;2023-01-20T17:19:28;5.23;;;4.73;;
4837;SDS011;2433;48.768;9.154;2023-01-20T17:21:53;7.93;;;5.13;;
4837;SDS011;2433;48.768;9.154;2023-01-20T17:24:20;6.15;;;5.13;;
4837;SDS011;2433;48.768;9.154;2023-01-20T17:26:46;9.30;;;5.40;;
4837;SDS011;2433;48.768;9.154;2023-01-20T17:29:11;12.17;;;5.87;;
4837;SDS011;2433;48.768;9.154;2023-01-20T17:31:38;8.52;;;5.50;;
4837;SDS011;2433;48.768;9.154;2023-01-20T17:34:05;8.18;;;5.25;;
4837;SDS011;2433;48.768;9.154;2023-01-20T17:36:31;9.37;;;5.97;;
4837;SDS011;2433;48.768;9.154;2023-01-20T17:39:00;6.68;;;5.38;;
4837;SDS011;2433;48.768;9.154;2023-01-20T17:41:26;10.70;;;7.03;;
4837;SDS011;2433;48.768;9.154;2023-01-20T17:43:52;8.87;;;5.97;;
4837;SDS011;2433;48.768;9.154;2023-01-20T17:46:22;11.73;;;6.70;;
4837;SDS011;2433;48.768;9.154;2023-01-20T17:48:49;9.57;;;6.68;;
4837;SDS011;2433;48.768;9.154;2023-01-20T17:51:19;7.27;;;5.87;;
4837;SDS011;2433;48.768;9.154;2023-01-20T17:53:46;5.93;;;4.97;;
4837;SDS011;2433;48.768;9.154;2023-01-20T17:56:12;9.02;;;5.38;;